Time;durP1;ratioP1;P1;durP2;ratioP2;P2;SDS_P1;SDS_P2;PMS_P1;PMS_P2;Temp;Humidity;BMP_temperature;BMP_pressure;BME280_temperature;BME280_humidity;BME280_pressure;Samples;Min_cycle;Max_cycle;Signal;HPM_P1;HPM_P2
2023/10/12 00:01:39;;;;;;;23.20;10.90;;;17.20;99.90;;;;;;4990460;28;20052;-88
2023/10/12 00:04:11;;;;;;;19.67;10.40;;;17.10;99.90;;;;;;4994864;28;20368;-88
2023/10/12 00:06:37;;;;;;;16.55;11.52;;;17.10;99.90;;;;;;4994978;28;20044;-87
2023/10/12 00:09:17;;;;;;;18.25;11.90;;;17.10;99.90;;;;;;4997990;28;20061;-88
2023/10/12 00:11:48;;;;;;;21.65;12.40;;;17.10;99.90;;;;;;4996640;28;20025;-88
2023/10/12 00:14:14;;;;;;;19.33;11.77;;;17.10;99.90;;;;;;4998072;28;20045;-87
2023/10/12 00:16:42;;;;;;;26.52;13.30;;;17.00;99.90;;;;;;4991890;28;20030;-88
2023/10/12 00:19:11;;;;;;;25.05;13.68;;;17.00;99.90;;;;;;4989552;28;20026;-88
2023/10/12 00:21:37;;;;;;;27.45;15.32;;;16.90;99.90;;;;;;5011379;28;20034;-89
2023/10/12 00:24:06;;;;;;;23.60;14.18;;;17.00;99.90;;;;;;4997391;28;20057;-88
2023/10/12 00:26:31;;;;;;;25.33;15.30;;;16.90;99.90;;;;;;5001640;28;20438;-87
2023/10/12 00:28:57;;;;;;;28.38;14.88;;;16.90;99.90;;;;;;4993977;28;20022;-89
2023/10/12 00:31:22;;;;;;;32.65;17.02;;;16.90;99.90;;;;;;4992924;28;20050;-88
2023/10/12 00:33:48;;;;;;;30.48;14.02;;;16.90;99.90;;;;;;5014822;28;20025;-89
2023/10/12 00:36:24;;;;;;;27.55;15.98;;;16.90;99.90;;;;;;4995647;28;20106;-88
2023/10/12 00:38:52;;;;;;;27.00;16.02;;;16.80;99.90;;;;;;4995268;28;20026;-90
2023/10/12 00:41:19;;;;;;;26.70;15.63;;;16.80;99.90;;;;;;4995000;28;20045;-88
2023/10/12 00:49:13;;;;;;;28.23;16.83;;;16.80;99.90;;;;;;5014219;28;20022;-88
2023/10/12 00:51:40;;;;;;;37.78;17.10;;;16.80;99.90;;;;;;5013633;28;20072;-88
2023/10/12 00:54:09;;;;;;;28.95;16.15;;;16.80;99.90;;;;;;5010693;28;20057;-88
2023/10/12 00:56:36;;;;;;;30.98;16.75;;;16.80;99.90;;;;;;5008020;28;20518;-88
2023/10/12 00:59:03;;;;;;;29.48;17.00;;;16.70;99.90;;;;;;4996273;28;20087;-88
2023/10/12 01:01:32;;;;;;;35.13;17.48;;;16.70;99.90;;;;;;4991592;28;20041;-88
2023/10/12 01:03:58;;;;;;;27.92;17.02;;;16.80;99.90;;;;;;4990053;28;20022;-88
2023/10/12 01:08:52;;;;;;;26.92;16.60;;;16.70;99.90;;;;;;5009282;28;20029;-87
2023/10/12 01:11:33;;;;;;;33.67;18.48;;;16.60;99.90;;;;;;4986141;28;20037;-88
2023/10/12 01:16:29;;;;;;;28.13;16.73;;;16.60;99.90;;;;;;5004179;28;20312;-87
2023/10/12 01:19:01;;;;;;;32.92;18.40;;;16.60;99.90;;;;;;4991557;28;20497;-87
2023/10/12 01:21:30;;;;;;;39.28;20.60;;;16.60;99.90;;;;;;4994704;28;20077;-87
2023/10/12 01:24:03;;;;;;;34.13;20.25;;;16.60;99.90;;;;;;4993065;28;20022;-87
2023/10/12 01:26:31;;;;;;;34.95;20.08;;;16.60;99.90;;;;;;4989893;28;20482;-89
2023/10/12 01:28:58;;;;;;;36.72;20.85;;;16.70;99.90;;;;;;4997172;28;20022;-88
2023/10/12 01:31:27;;;;;;;37.78;19.85;;;16.60;99.90;;;;;;4995737;28;20042;-87
2023/10/12 01:33:55;;;;;;;39.15;23.25;;;16.60;99.90;;;;;;4986856;28;20038;-87
2023/10/12 01:36:22;;;;;;;31.48;19.67;;;16.60;99.90;;;;;;4996431;28;20474;-88
2023/10/12 01:38:49;;;;;;;37.72;21.17;;;16.60;99.90;;;;;;4992009;28;20040;-88
2023/10/12 01:41:25;;;;;;;35.55;21.67;;;16.50;99.90;;;;;;5012569;28;20380;-88
2023/10/12 01:43:52;;;;;;;40.17;22.65;;;16.60;99.90;;;;;;4995182;28;20029;-88
2023/10/12 01:46:21;;;;;;;34.88;19.92;;;16.60;99.90;;;;;;4992608;28;20479;-86
2023/10/12 01:48:49;;;;;;;35.35;21.55;;;16.60;99.90;;;;;;4991819;28;20025;-89
2023/10/12 01:51:17;;;;;;;39.30;20.55;;;16.60;99.90;;;;;;4986422;28;20108;-88
2023/10/12 01:53:42;;;;;;;41.83;21.52;;;16.50;99.90;;;;;;4996607;28;20045;-88
2023/10/12 01:56:11;;;;;;;43.03;23.42;;;16.50;99.90;;;;;;4992908;28;20088;-87
2023/10/12 01:58:43;;;;;;;40.17;21.98;;;16.60;99.90;;;;;;4990510;28;20532;-88
2023/10/12 02:01:13;;;;;;;39.07;22.83;;;16.50;99.90;;;;;;4992056;28;20406;-87
2023/10/12 02:03:45;;;;;;;37.95;22.35;;;16.50;99.90;;;;;;4987941;28;20026;-87
2023/10/12 02:06:13;;;;;;;36.97;22.70;;;16.50;99.90;;;;;;5013361;28;20026;-88
2023/10/12 02:08:45;;;;;;;35.90;22.27;;;16.50;99.90;;;;;;4994053;28;20026;-88
2023/10/12 02:11:26;;;;;;;35.70;23.13;;;16.50;99.90;;;;;;4996084;28;20073;-87
2023/10/12 02:13:56;;;;;;;39.92;23.05;;;16.50;99.90;;;;;;4993949;28;20065;-87
2023/10/12 02:16:24;;;;;;;43.00;23.80;;;16.50;99.90;;;;;;4989382;28;20049;-87
2023/10/12 02:18:53;;;;;;;35.20;21.95;;;16.50;99.90;;;;;;5003769;28;20079;-87
2023/10/12 02:21:23;;;;;;;36.45;23.55;;;16.50;99.90;;;;;;4993117;28;20124;-87
2023/10/12 02:23:55;;;;;;;40.20;23.20;;;16.50;99.90;;;;;;4992590;28;20030;-88
2023/10/12 02:26:36;;;;;;;42.95;24.40;;;16.50;99.90;;;;;;4994615;28;20038;-89
2023/10/12 02:34:25;;;;;;;40.30;23.50;;;16.50;99.90;;;;;;5013062;28;20026;-89
2023/10/12 02:39:40;;;;;;;47.20;24.63;;;16.40;99.90;;;;;;5008854;28;20030;-89
2023/10/12 02:44:35;;;;;;;43.08;24.35;;;16.50;99.90;;;;;;5014245;28;20367;-89
2023/10/12 02:47:12;;;;;;;40.92;25.13;;;16.40;99.90;;;;;;4989634;28;20088;-90
2023/10/12 02:49:40;;;;;;;39.42;24.00;;;16.50;99.90;;;;;;4994141;28;20029;-88
2023/10/12 02:52:08;;;;;;;38.25;24.30;;;16.50;99.90;;;;;;4996623;28;20032;-88
2023/10/12 02:54:41;;;;;;;37.60;24.58;;;16.50;99.90;;;;;;4993193;28;20025;-88
2023/10/12 02:57:07;;;;;;;35.72;23.67;;;16.40;99.90;;;;;;4995803;28;20390;-88
2023/10/12 02:59:38;;;;;;;38.42;22.05;;;16.50;99.90;;;;;;4998830;28;20040;-88
2023/10/12 03:02:19;;;;;;;43.05;25.13;;;16.40;99.90;;;;;;4986281;28;20026;-88
2023/10/12 03:04:45;;;;;;;39.20;23.40;;;16.50;99.90;;;;;;5012504;28;20030;-87
2023/10/12 03:07:16;;;;;;;39.65;22.65;;;16.50;99.90;;;;;;4998161;28;20022;-88
2023/10/12 03:09:43;;;;;;;41.67;23.50;;;16.40;99.90;;;;;;5010697;28;20030;-88
2023/10/12 03:12:10;;;;;;;42.63;24.30;;;16.50;99.90;;;;;;4996991;28;20036;-88
2023/10/12 03:14:35;;;;;;;43.67;23.63;;;16.50;99.90;;;;;;4995357;28;20032;-88
2023/10/12 03:17:04;;;;;;;36.47;23.00;;;16.40;99.90;;;;;;4997720;28;20089;-88
2023/10/12 03:19:35;;;;;;;37.20;22.58;;;16.50;99.90;;;;;;4997707;28;20097;-88
2023/10/12 03:22:16;;;;;;;37.70;24.17;;;16.50;99.90;;;;;;4995962;28;20049;-88
2023/10/12 03:24:45;;;;;;;39.85;24.30;;;16.50;99.90;;;;;;4997581;28;20077;-88
2023/10/12 03:27:13;;;;;;;47.38;25.17;;;16.50;99.90;;;;;;4996348;28;20469;-88
2023/10/12 03:29:43;;;;;;;39.60;23.80;;;16.50;99.90;;;;;;4992879;28;20026;-88
2023/10/12 03:32:12;;;;;;;43.55;24.80;;;16.50;99.90;;;;;;4993631;28;21287;-89
2023/10/12 03:37:14;;;;;;;32.65;22.25;;;16.50;99.90;;;;;;5013916;28;20113;-88
2023/10/12 03:50:09;;;;;;;42.97;25.17;;;16.40;99.90;;;;;;5007588;28;20474;-89
2023/10/12 03:52:40;;;;;;;36.90;22.35;;;16.40;99.90;;;;;;5011491;28;20038;-88
2023/10/12 04:08:00;;;;;;;32.45;20.65;;;16.40;99.90;;;;;;5003053;28;20026;-89
2023/10/12 04:18:35;;;;;;;36.72;24.48;;;16.40;99.90;;;;;;5014090;28;20080;-89
2023/10/12 04:21:03;;;;;;;43.25;26.55;;;16.40;99.90;;;;;;4997454;28;20040;-88
2023/10/12 04:29:30;;;;;;;46.22;28.80;;;16.30;99.90;;;;;;5011985;28;20014;-88
2023/10/12 04:36:38;;;;;;;45.22;28.80;;;16.20;99.90;;;;;;5013858;28;20029;-88
2023/10/12 04:41:38;;;;;;;46.00;30.13;;;16.20;99.90;;;;;;5011392;28;20037;-89
2023/10/12 04:46:58;;;;;;;50.00;31.73;;;16.20;99.90;;;;;;5011037;28;20073;-89
2023/10/12 04:52:15;;;;;;;51.30;31.73;;;16.20;99.90;;;;;;5011018;28;20030;-89
2023/10/12 04:57:26;;;;;;;50.88;30.73;;;16.20;99.90;;;;;;5012354;28;20030;-90
2023/10/12 05:00:12;;;;;;;48.05;31.05;;;16.10;99.90;;;;;;4999915;28;20044;-90
2023/10/12 05:07:58;;;;;;;49.25;29.13;;;16.10;99.90;;;;;;5014749;28;20080;-90
2023/10/12 05:13:04;;;;;;;44.95;28.77;;;16.00;99.90;;;;;;5003155;28;20026;-91
2023/10/12 05:15:40;;;;;;;49.40;29.50;;;16.00;99.90;;;;;;4986743;28;20037;-91
2023/10/12 05:18:13;;;;;;;43.75;30.65;;;16.00;99.90;;;;;;4994487;28;20113;-90
2023/10/12 05:20:42;;;;;;;50.35;29.30;;;16.00;99.90;;;;;;5014995;28;20036;-90
2023/10/12 05:23:08;;;;;;;47.95;30.40;;;16.00;99.90;;;;;;4997008;28;20084;-90
2023/10/12 05:25:48;;;;;;;47.53;29.42;;;16.00;99.90;;;;;;4995199;28;20060;-89
2023/10/12 05:28:18;;;;;;;43.72;27.90;;;16.00;99.90;;;;;;4989055;28;20030;-90
2023/10/12 05:30:48;;;;;;;43.97;27.27;;;16.00;99.90;;;;;;4993631;28;20057;-89
2023/10/12 05:33:28;;;;;;;45.88;28.77;;;16.00;99.90;;;;;;5007909;28;20023;-90
2023/10/12 05:35:57;;;;;;;46.05;28.05;;;16.00;99.90;;;;;;5016140;28;20043;-90
2023/10/12 05:38:34;;;;;;;47.85;29.42;;;15.90;99.90;;;;;;4996506;28;20383;-89
2023/10/12 05:41:04;;;;;;;47.58;30.17;;;15.90;99.90;;;;;;4990804;28;20046;-89
2023/10/12 05:43:33;;;;;;;47.60;29.88;;;15.90;99.90;;;;;;4976826;28;20399;-89
2023/10/12 05:46:04;;;;;;;45.85;28.67;;;15.90;99.90;;;;;;4990996;28;20030;-89
2023/10/12 05:48:36;;;;;;;44.13;28.38;;;15.90;99.90;;;;;;4989790;28;20116;-90
2023/10/12 05:51:03;;;;;;;48.05;29.23;;;15.90;99.90;;;;;;4995313;28;20117;-89
2023/10/12 05:53:29;;;;;;;46.88;30.23;;;15.90;99.90;;;;;;4989241;28;20037;-90
2023/10/12 05:55:56;;;;;;;47.20;30.95;;;15.90;99.90;;;;;;4995647;28;20026;-89
2023/10/12 05:58:22;;;;;;;51.90;30.77;;;15.90;99.90;;;;;;4996226;28;20030;-90
2023/10/12 06:00:52;;;;;;;48.95;31.35;;;15.90;99.90;;;;;;4996140;28;20125;-90
2023/10/12 06:03:20;;;;;;;52.85;32.70;;;15.90;99.90;;;;;;4997118;28;20032;-89
2023/10/12 06:05:47;;;;;;;51.92;31.95;;;15.90;99.90;;;;;;4990254;28;20030;-89
2023/10/12 06:08:17;;;;;;;49.50;30.65;;;15.90;99.90;;;;;;4979376;28;20048;-89
2023/10/12 06:10:42;;;;;;;42.80;28.50;;;15.90;99.90;;;;;;4997172;28;20366;-90
2023/10/12 06:13:15;;;;;;;46.05;30.23;;;15.90;99.90;;;;;;4999526;28;20022;-90
2023/10/12 06:15:42;;;;;;;44.25;30.23;;;15.90;99.90;;;;;;4998100;28;20493;-90
2023/10/12 06:18:21;;;;;;;48.15;30.02;;;16.00;99.90;;;;;;5000158;28;20390;-90
2023/10/12 06:20:58;;;;;;;48.97;29.55;;;15.90;99.90;;;;;;4998397;28;20088;-89
2023/10/12 06:23:27;;;;;;;52.75;33.22;;;15.90;99.90;;;;;;5000123;28;20026;-89
2023/10/12 06:25:52;;;;;;;49.17;30.58;;;16.00;99.90;;;;;;4991848;28;20037;-89
2023/10/12 06:28:18;;;;;;;48.15;29.90;;;16.00;99.90;;;;;;4994526;28;20022;-89
2023/10/12 06:30:47;;;;;;;48.78;30.75;;;16.00;99.90;;;;;;4995688;28;20536;-89
2023/10/12 06:33:17;;;;;;;55.45;32.10;;;16.00;99.90;;;;;;4994311;28;20029;-89
2023/10/12 06:35:59;;;;;;;49.17;31.33;;;16.00;99.90;;;;;;4994579;28;20115;-88
2023/10/12 06:38:39;;;;;;;51.27;30.57;;;16.00;99.90;;;;;;4985729;28;20564;-88
2023/10/12 06:43:57;;;;;;;43.95;28.08;;;16.00;99.90;;;;;;5010537;28;20398;-88
2023/10/12 06:46:27;;;;;;;41.30;28.42;;;16.00;99.90;;;;;;4988004;28;20044;-87
2023/10/12 06:49:00;;;;;;;43.05;30.42;;;16.00;99.90;;;;;;4998465;28;20084;-89
2023/10/12 06:51:28;;;;;;;44.22;30.38;;;16.00;99.90;;;;;;4995317;28;20033;-89
2023/10/12 06:54:05;;;;;;;42.63;29.58;;;16.00;99.90;;;;;;5000441;28;20394;-89
2023/10/12 06:56:31;;;;;;;41.97;28.98;;;15.90;99.90;;;;;;4994832;28;20036;-89
2023/10/12 07:04:13;;;;;;;46.60;28.17;;;16.00;99.90;;;;;;5005017;28;20081;-89
2023/10/12 07:07:00;;;;;;;44.55;29.55;;;16.00;99.90;;;;;;4993973;28;20513;-88
2023/10/12 07:09:38;;;;;;;45.75;28.85;;;16.00;99.90;;;;;;4991950;28;20064;-89
2023/10/12 07:12:20;;;;;;;44.40;29.58;;;15.90;99.90;;;;;;4995729;28;20030;-88
2023/10/12 07:14:46;;;;;;;45.35;28.88;;;16.00;99.90;;;;;;4988859;28;20064;-89
2023/10/12 07:17:16;;;;;;;47.78;30.92;;;15.90;99.90;;;;;;4995669;28;20133;-88
2023/10/12 07:19:46;;;;;;;50.75;31.83;;;16.00;99.90;;;;;;4995899;28;20029;-87
2023/10/12 07:22:15;;;;;;;46.10;30.38;;;16.00;99.90;;;;;;4982805;28;20509;-88
2023/10/12 07:24:44;;;;;;;43.45;28.23;;;16.00;99.90;;;;;;4997242;28;20479;-88
2023/10/12 07:27:11;;;;;;;44.65;29.85;;;16.00;99.90;;;;;;4995410;28;20018;-88
2023/10/12 07:29:44;;;;;;;45.42;28.58;;;15.90;99.90;;;;;;4993826;28;20038;-89
2023/10/12 07:32:31;;;;;;;;;;;15.90;99.90;;;;;;4997028;28;20040;-89
2023/10/12 07:34:57;;;;;;;45.28;28.67;;;15.90;99.90;;;;;;4995609;28;19913;-89
2023/10/12 07:37:23;;;;;;;39.42;25.73;;;15.90;99.90;;;;;;4996451;28;20113;-90
2023/10/12 07:39:54;;;;;;;43.45;28.40;;;15.90;99.90;;;;;;4996571;28;20111;-88
2023/10/12 07:42:27;;;;;;;40.67;27.65;;;15.90;99.90;;;;;;4996405;28;20061;-88
2023/10/12 07:44:56;;;;;;;41.30;26.95;;;15.90;99.90;;;;;;4989737;28;20018;-88
2023/10/12 07:47:32;;;;;;;48.58;30.42;;;15.90;99.90;;;;;;4995373;28;20032;-88
2023/10/12 07:50:06;;;;;;;45.08;29.25;;;15.90;99.90;;;;;;4995990;28;20029;-89
2023/10/12 07:55:04;;;;;;;28.85;19.83;;;16.00;99.90;;;;;;5026554;28;20029;-89
2023/10/12 07:57:30;;;;;;;23.45;16.25;;;16.00;99.90;;;;;;4994822;28;20087;-89
2023/10/12 08:13:15;;;;;;;8.02;5.72;;;15.60;99.90;;;;;;5015841;28;20042;-89
2023/10/12 08:21:32;;;;;;;6.60;4.22;;;15.40;99.90;;;;;;4988350;28;20107;-88
2023/10/12 08:24:09;;;;;;;6.63;3.08;;;15.30;99.90;;;;;;4989527;28;20032;-89
2023/10/12 08:29:22;;;;;;;4.70;2.15;;;15.10;99.90;;;;;;5009698;28;20118;-89
2023/10/12 08:32:03;;;;;;;6.00;2.00;;;15.10;99.90;;;;;;4993494;28;20042;-90
2023/10/12 08:40:03;;;;;;;4.10;2.30;;;14.90;99.90;;;;;;5002855;28;20038;-89
2023/10/12 08:45:09;;;;;;;8.93;3.65;;;14.70;99.90;;;;;;5018155;28;20029;-89
2023/10/12 08:50:08;;;;;;;4.18;2.28;;;14.60;99.90;;;;;;5016031;28;20029;-90
2023/10/12 08:52:38;;;;;;;7.22;2.83;;;14.60;99.90;;;;;;5005578;28;20171;-90
2023/10/12 08:55:12;;;;;;;6.25;2.30;;;14.50;99.90;;;;;;5017360;28;20469;-89
2023/10/12 08:58:01;;;;;;;8.75;3.25;;;14.50;99.90;;;;;;4994169;28;20030;-89
2023/10/12 09:03:05;;;;;;;9.60;3.88;;;14.40;99.90;;;;;;5013075;28;20025;-88
2023/10/12 09:05:31;;;;;;;6.28;3.40;;;14.40;99.90;;;;;;5015435;28;20038;-89
2023/10/12 09:13:20;;;;;;;7.60;3.70;;;14.50;99.90;;;;;;5012758;28;20030;-89
2023/10/12 09:15:48;;;;;;;7.18;3.33;;;14.50;99.90;;;;;;5012137;28;20038;-90
2023/10/12 09:18:18;;;;;;;5.47;3.22;;;14.50;99.90;;;;;;5015181;28;20474;-89
2023/10/12 09:23:28;;;;;;;7.97;3.72;;;14.60;99.90;;;;;;5015240;28;20506;-89
2023/10/12 09:31:15;;;;;;;7.32;3.88;;;14.70;99.90;;;;;;5022251;28;20052;-89
2023/10/12 09:33:44;;;;;;;9.25;4.07;;;14.80;99.90;;;;;;4995523;28;20096;-89
2023/10/12 09:36:10;;;;;;;5.88;4.00;;;14.80;99.90;;;;;;5007722;28;20027;-89
2023/10/12 09:38:38;;;;;;;6.57;3.97;;;14.80;99.90;;;;;;5010253;28;20025;-88
2023/10/12 09:41:08;;;;;;;7.57;4.07;;;14.80;99.90;;;;;;5000775;28;20034;-87
2023/10/12 09:43:38;;;;;;;8.00;4.70;;;14.90;99.90;;;;;;5004088;28;20083;-88
2023/10/12 09:46:06;;;;;;;6.25;4.57;;;14.90;99.90;;;;;;4998270;28;20030;-89
2023/10/12 09:48:38;;;;;;;7.32;4.45;;;15.00;99.90;;;;;;5009252;28;20018;-89
2023/10/12 09:51:10;;;;;;;11.13;5.30;;;15.10;99.90;;;;;;4985743;28;20062;-89
2023/10/12 09:53:43;;;;;;;9.05;5.93;;;15.20;99.90;;;;;;4985816;28;20406;-89
2023/10/12 09:56:18;;;;;;;8.95;6.50;;;15.30;99.90;;;;;;4992857;28;20113;-89
2023/10/12 09:59:00;;;;;;;10.82;6.35;;;15.30;99.90;;;;;;4994278;28;20022;-90
2023/10/12 10:04:27;;;;;;;12.27;7.15;;;15.50;99.90;;;;;;5016984;28;20026;-89
2023/10/12 10:07:14;;;;;;;13.43;7.97;;;15.50;99.90;;;;;;5015670;28;20026;-87
2023/10/12 10:09:45;;;;;;;14.93;8.65;;;15.60;99.90;;;;;;4988084;28;20426;-88
2023/10/12 10:12:15;;;;;;;16.85;9.60;;;15.60;99.90;;;;;;4990866;28;20022;-88
2023/10/12 10:14:44;;;;;;;19.85;9.05;;;15.70;99.90;;;;;;5003277;28;20026;-87
2023/10/12 10:17:14;;;;;;;16.67;9.52;;;15.80;99.90;;;;;;4998816;28;20026;-89
2023/10/12 10:19:43;;;;;;;15.20;9.20;;;15.90;99.90;;;;;;4999848;28;20087;-88
2023/10/12 10:22:14;;;;;;;12.65;7.45;;;16.00;99.90;;;;;;4997941;28;20113;-89
2023/10/12 10:24:52;;;;;;;15.15;9.55;;;16.10;99.90;;;;;;4998893;28;20026;-89
2023/10/12 10:27:18;;;;;;;18.23;9.20;;;16.20;99.90;;;;;;4988723;28;20090;-90
2023/10/12 10:29:56;;;;;;;18.85;11.13;;;16.30;99.90;;;;;;5006696;28;20053;-90
2023/10/12 10:32:36;;;;;;;18.80;10.40;;;16.40;99.90;;;;;;4989268;28;20030;-90
2023/10/12 10:35:18;;;;;;;20.20;12.48;;;16.50;99.90;;;;;;5010853;28;20033;-91
2023/10/12 10:37:57;;;;;;;24.98;13.52;;;16.50;99.90;;;;;;4998692;28;20030;-91
2023/10/12 10:40:44;;;;;;;19.95;12.68;;;16.70;99.90;;;;;;4995744;28;20093;-91
2023/10/12 10:43:14;;;;;;;32.22;17.15;;;16.80;99.90;;;;;;4991852;28;20022;-90
2023/10/12 10:45:41;;;;;;;37.67;20.73;;;16.90;99.90;;;;;;5002210;28;20026;-90
2023/10/12 10:48:07;;;;;;;29.38;18.95;;;17.00;99.90;;;;;;4989194;28;20418;-90
2023/10/12 10:50:33;;;;;;;37.15;21.65;;;17.10;99.90;;;;;;4985656;28;20036;-91
2023/10/12 10:53:08;;;;;;;34.50;20.63;;;17.20;99.90;;;;;;4996733;28;20030;-90
2023/10/12 10:55:35;;;;;;;36.63;20.13;;;17.30;99.90;;;;;;5011359;28;20533;-91
2023/10/12 10:58:01;;;;;;;38.33;22.83;;;17.50;99.90;;;;;;4997165;28;20034;-89
2023/10/12 11:00:37;;;;;;;28.38;19.58;;;17.50;99.90;;;;;;5001759;28;20038;-90
2023/10/12 11:03:06;;;;;;;36.28;21.58;;;17.50;99.90;;;;;;5013031;28;20108;-90
2023/10/12 11:05:34;;;;;;;30.80;20.35;;;17.50;99.90;;;;;;5019162;28;20040;-91
2023/10/12 11:13:31;;;;;;;32.25;20.55;;;17.60;99.90;;;;;;5008336;28;20060;-90
2023/10/12 11:16:05;;;;;;;33.90;21.70;;;17.60;99.90;;;;;;4992946;28;20049;-89
2023/10/12 11:18:30;;;;;;;34.60;21.27;;;17.70;99.90;;;;;;4992579;28;20393;-90
2023/10/12 11:21:01;;;;;;;35.22;24.23;;;17.60;99.90;;;;;;5003120;28;20156;-90
2023/10/12 11:23:27;;;;;;;31.08;21.85;;;17.70;99.90;;;;;;4995153;28;20093;-91
2023/10/12 11:26:04;;;;;;;35.47;21.92;;;17.80;99.90;;;;;;5007825;28;20035;-90
2023/10/12 11:28:33;;;;;;;35.00;23.08;;;17.90;99.90;;;;;;5003739;28;20497;-90
2023/10/12 11:31:17;;;;;;;30.88;22.20;;;17.90;99.90;;;;;;5003673;28;20120;-90
2023/10/12 11:33:48;;;;;;;36.05;23.02;;;17.90;99.90;;;;;;5006170;28;20524;-91
2023/10/12 11:36:24;;;;;;;32.42;21.48;;;17.90;99.90;;;;;;5005477;28;20028;-90
2023/10/12 11:39:04;;;;;;;33.00;21.25;;;17.80;99.90;;;;;;4999723;28;20113;-90
2023/10/12 11:41:30;;;;;;;31.88;20.25;;;17.90;99.90;;;;;;4997047;28;20042;-90
2023/10/12 11:44:05;;;;;;;30.50;20.13;;;17.80;99.90;;;;;;5009567;28;20496;-90
2023/10/12 11:46:43;;;;;;;31.00;19.67;;;17.70;99.90;;;;;;4999503;28;20042;-90
2023/10/12 11:49:13;;;;;;;27.80;17.92;;;17.80;99.90;;;;;;4997471;28;20025;-90
2023/10/12 11:51:41;;;;;;;27.83;17.70;;;17.70;99.90;;;;;;4998167;28;20375;-89
2023/10/12 11:54:19;;;;;;;32.03;18.35;;;17.70;99.90;;;;;;4998997;28;20025;-90
2023/10/12 11:56:45;;;;;;;27.27;18.02;;;17.60;99.90;;;;;;4997511;28;20123;-90
2023/10/12 11:59:22;;;;;;;30.65;18.08;;;17.60;99.90;;;;;;4984497;28;20026;-89
2023/10/12 12:01:54;;;;;;;28.02;18.55;;;17.50;99.90;;;;;;4984806;28;20111;-89
2023/10/12 12:04:30;;;;;;;27.50;17.58;;;17.50;99.90;;;;;;4993156;28;20053;-89
2023/10/12 12:06:56;;;;;;;29.35;18.25;;;17.40;99.90;;;;;;4976864;28;20030;-89
2023/10/12 12:09:22;;;;;;;29.05;18.02;;;17.30;99.90;;;;;;4982565;28;20389;-89
2023/10/12 12:11:49;;;;;;;26.00;17.40;;;17.20;99.90;;;;;;4975251;28;20045;-89
2023/10/12 12:14:15;;;;;;;29.33;18.95;;;17.10;99.90;;;;;;4997601;28;20076;-88
2023/10/12 12:16:40;;;;;;;30.85;17.77;;;17.10;99.90;;;;;;4989696;28;20040;-89
2023/10/12 12:19:06;;;;;;;31.23;18.02;;;17.20;99.90;;;;;;4990911;28;20029;-90
2023/10/12 12:21:34;;;;;;;24.98;17.35;;;17.10;99.90;;;;;;4991206;28;20066;-90
2023/10/12 12:24:22;;;;;;;28.55;18.58;;;17.10;99.90;;;;;;4988564;28;20029;-89
2023/10/12 12:26:49;;;;;;;23.50;17.92;;;17.10;99.90;;;;;;4984697;28;20026;-88
2023/10/12 12:29:16;;;;;;;30.02;17.30;;;17.20;99.90;;;;;;4984133;28;20113;-89
2023/10/12 12:31:42;;;;;;;26.83;17.77;;;17.30;99.90;;;;;;4995888;28;20054;-90
2023/10/12 12:34:08;;;;;;;25.17;16.58;;;17.40;99.90;;;;;;5016482;28;20098;-90
2023/10/12 12:36:34;;;;;;;25.50;16.77;;;17.40;99.90;;;;;;4990629;28;20090;-91
2023/10/12 12:39:01;;;;;;;25.80;18.60;;;17.50;99.90;;;;;;4994679;28;20559;-91
2023/10/12 12:41:29;;;;;;;29.35;17.23;;;17.50;99.90;;;;;;4998264;28;20034;-88
2023/10/12 12:43:58;;;;;;;28.25;17.08;;;17.70;99.90;;;;;;4989980;28;20406;-90
2023/10/12 12:46:24;;;;;;;26.88;17.05;;;17.80;99.90;;;;;;4988058;28;20434;-89
2023/10/12 12:48:51;;;;;;;23.05;16.23;;;17.90;99.90;;;;;;4986907;28;20018;-89
2023/10/12 12:51:20;;;;;;;22.00;15.48;;;18.00;99.90;;;;;;4991252;28;20113;-89
2023/10/12 12:53:47;;;;;;;24.73;15.68;;;18.00;99.90;;;;;;4993547;28;20028;-89
2023/10/12 12:56:18;;;;;;;23.65;14.15;;;18.10;99.90;;;;;;4998274;28;20026;-89
2023/10/12 12:58:49;;;;;;;21.65;13.95;;;18.20;99.90;;;;;;4992410;28;20483;-88
2023/10/12 13:01:18;;;;;;;22.08;13.75;;;18.10;99.90;;;;;;4980355;28;20035;-90
2023/10/12 13:03:45;;;;;;;19.30;13.30;;;18.10;99.90;;;;;;4987495;28;20034;-89
2023/10/12 13:06:12;;;;;;;24.00;14.05;;;18.00;99.90;;;;;;5003474;28;20393;-89
2023/10/12 13:08:37;;;;;;;22.23;13.07;;;18.00;99.90;;;;;;5007204;28;20184;-89
2023/10/12 13:11:06;;;;;;;25.23;13.63;;;18.00;99.90;;;;;;5002614;28;20500;-90
2023/10/12 13:13:33;;;;;;;19.23;12.82;;;18.00;99.90;;;;;;4988642;28;20037;-90
2023/10/12 13:16:05;;;;;;;24.30;14.07;;;18.00;99.90;;;;;;5001108;28;20029;-90
2023/10/12 13:18:34;;;;;;;19.35;12.32;;;18.00;99.90;;;;;;4997853;28;20025;-90
2023/10/12 13:21:06;;;;;;;19.70;11.77;;;17.90;99.90;;;;;;5003026;28;20133;-90
2023/10/12 13:23:33;;;;;;;17.42;11.65;;;17.90;99.90;;;;;;4991847;28;20066;-90
2023/10/12 13:26:08;;;;;;;20.20;12.25;;;17.90;99.90;;;;;;4997369;28;20064;-89
2023/10/12 13:28:34;;;;;;;19.30;11.45;;;17.90;99.90;;;;;;5002485;28;20504;-90
2023/10/12 13:31:01;;;;;;;17.65;10.88;;;17.90;99.90;;;;;;5000087;28;20049;-90
2023/10/12 13:33:28;;;;;;;17.35;11.18;;;17.80;99.90;;;;;;4996129;28;20373;-90
2023/10/12 13:35:56;;;;;;;16.08;9.93;;;17.70;99.90;;;;;;5002825;28;20041;-90
2023/10/12 13:38:22;;;;;;;20.02;11.55;;;17.80;99.90;;;;;;4998287;28;20072;-90
2023/10/12 13:40:49;;;;;;;14.98;10.70;;;17.70;99.90;;;;;;5006954;28;20486;-90
2023/10/12 13:43:15;;;;;;;18.45;10.52;;;17.60;99.90;;;;;;5001113;28;20036;-90
2023/10/12 13:45:48;;;;;;;20.95;11.15;;;17.60;99.90;;;;;;5001942;28;20055;-90
2023/10/12 13:48:21;;;;;;;16.80;10.75;;;17.50;99.90;;;;;;5008165;28;20029;-91
2023/10/12 13:50:52;;;;;;;21.63;11.40;;;17.50;99.90;;;;;;5002250;28;20045;-89
2023/10/12 13:53:19;;;;;;;16.45;10.90;;;17.40;99.90;;;;;;5018688;28;20026;-89
2023/10/12 13:55:47;;;;;;;18.63;10.90;;;17.40;99.90;;;;;;5002933;28;20021;-91
2023/10/12 13:58:13;;;;;;;18.90;10.90;;;17.40;99.90;;;;;;5014454;28;20704;-89
2023/10/12 14:00:39;;;;;;;20.05;10.88;;;17.30;99.90;;;;;;5009901;28;20044;-89
2023/10/12 14:03:10;;;;;;;22.35;12.38;;;17.30;99.90;;;;;;5006227;28;20026;-89
2023/10/12 14:05:40;;;;;;;20.75;11.68;;;17.20;99.90;;;;;;5001661;28;20429;-90
2023/10/12 14:08:08;;;;;;;19.60;10.63;;;17.20;99.90;;;;;;5010868;28;20058;-90
2023/10/12 14:10:39;;;;;;;24.10;11.95;;;17.10;99.90;;;;;;5001263;28;20457;-90
2023/10/12 14:13:04;;;;;;;24.73;11.73;;;17.10;99.90;;;;;;5011664;28;20121;-92
2023/10/12 14:15:30;;;;;;;24.15;12.20;;;17.10;99.90;;;;;;4999335;28;20124;-92
2023/10/12 14:17:56;;;;;;;19.20;12.15;;;17.10;99.90;;;;;;4995696;28;20018;-92
2023/10/12 14:20:26;;;;;;;28.13;12.90;;;17.00;99.90;;;;;;4996155;28;20042;-91
2023/10/12 14:22:54;;;;;;;24.75;14.00;;;17.00;99.90;;;;;;4986658;28;20118;-93
2023/10/12 14:25:26;;;;;;;25.75;13.85;;;16.90;99.90;;;;;;4988588;28;20041;-91
2023/10/12 14:27:52;;;;;;;22.95;13.85;;;16.90;99.90;;;;;;5003954;28;20065;-92
2023/10/12 14:30:25;;;;;;;20.85;14.07;;;16.80;99.90;;;;;;5001026;28;20073;-90
2023/10/12 14:32:50;;;;;;;26.83;13.18;;;16.70;99.90;;;;;;4998728;28;20030;-88
2023/10/12 14:35:18;;;;;;;24.50;14.15;;;16.70;99.90;;;;;;4996405;28;20030;-91
2023/10/12 14:37:44;;;;;;;30.95;14.15;;;16.70;99.90;;;;;;5012151;28;20022;-90
2023/10/12 14:40:11;;;;;;;34.10;16.77;;;16.60;99.90;;;;;;4986261;28;20018;-91
2023/10/12 14:42:40;;;;;;;24.00;14.63;;;16.60;99.90;;;;;;4988836;28;20037;-90
2023/10/12 14:45:08;;;;;;;24.27;14.88;;;16.50;99.90;;;;;;4987158;28;20030;-90
2023/10/12 14:47:35;;;;;;;54.10;29.02;;;16.60;99.90;;;;;;4979798;28;20084;-91
2023/10/12 14:50:05;;;;;;;38.13;22.45;;;16.60;99.90;;;;;;4984961;28;20029;-91
2023/10/12 14:52:38;;;;;;;30.90;18.90;;;16.60;99.90;;;;;;4992626;28;20034;-92
2023/10/12 14:55:10;;;;;;;27.33;17.95;;;16.70;99.90;;;;;;4991825;28;20058;-91
2023/10/12 14:57:40;;;;;;;29.88;17.63;;;16.70;99.90;;;;;;4993239;28;20041;-91
2023/10/12 15:00:22;;;;;;;28.13;16.73;;;16.70;99.90;;;;;;4995013;28;20029;-92
2023/10/12 15:02:57;;;;;;;27.85;16.00;;;16.80;99.90;;;;;;4994081;28;20056;-91
2023/10/12 15:05:30;;;;;;;23.88;15.45;;;16.70;99.90;;;;;;4987935;28;20486;-91
2023/10/12 15:07:56;;;;;;;26.48;17.85;;;16.80;99.90;;;;;;4988969;28;20961;-90
2023/10/12 15:10:23;;;;;;;27.33;17.23;;;16.80;99.90;;;;;;4992583;28;20022;-91
2023/10/12 15:12:48;;;;;;;25.02;15.73;;;16.80;99.90;;;;;;4989609;28;20513;-90
2023/10/12 15:15:27;;;;;;;24.80;16.17;;;16.80;99.90;;;;;;4997617;28;20026;-90